createdAt,value
2022-10-07T00:02:59.667Z,82.07
2022-10-07T00:06:14.235Z,81.59
2022-10-07T00:09:22.658Z,81.94
2022-10-07T00:12:31.341Z,82.07
2022-10-07T00:15:39.819Z,82.23
2022-10-07T00:18:49.184Z,81.52
2022-10-07T00:21:59.075Z,81.74
2022-10-07T00:25:08.308Z,82.33
2022-10-07T00:28:16.894Z,82.60
2022-10-07T00:31:28.099Z,82.87
2022-10-07T00:34:36.502Z,83.45
2022-10-07T00:37:46.862Z,83.25
2022-10-07T00:40:55.482Z,83.69
2022-10-07T00:44:38.659Z,83.84
2022-10-07T00:47:50.868Z,84.33
2022-10-07T00:51:02.817Z,84.71
2022-10-07T00:54:18.154Z,85.06
2022-10-07T00:57:31.914Z,84.68
2022-10-07T01:00:42.524Z,84.37
2022-10-07T01:03:50.892Z,84.41
2022-10-07T01:06:59.326Z,85.42
2022-10-07T01:10:13.699Z,84.81
2022-10-07T01:13:34.569Z,85.41
2022-10-07T01:16:57.898Z,85.49
2022-10-07T01:20:29.606Z,85.44
2022-10-07T01:24:04.676Z,85.15
2022-10-07T01:27:17.840Z,85.15
2022-10-07T01:30:26.901Z,85.64
2022-10-07T01:33:38.067Z,85.45
2022-10-07T01:36:51.938Z,85.74
2022-10-07T01:40:06.366Z,85.86
2022-10-07T01:43:21.061Z,85.02
2022-10-07T01:46:30.512Z,85.78
2022-10-07T01:49:41.225Z,85.20
2022-10-07T01:53:12.533Z,85.60
2022-10-07T01:56:43.616Z,85.86
2022-10-07T02:00:10.546Z,86.42
2022-10-07T02:04:05.670Z,85.86
2022-10-07T02:07:29.440Z,86.00
2022-10-07T02:10:54.597Z,85.61
2022-10-07T02:14:12.923Z,85.69
2022-10-07T02:17:29.084Z,86.16
2022-10-07T02:20:41.603Z,85.51
2022-10-07T02:23:52.041Z,85.24
2022-10-07T02:27:06.339Z,85.15
2022-10-07T02:30:23.282Z,85.22
2022-10-07T02:33:43.899Z,85.78
2022-10-07T02:37:02.781Z,86.13
2022-10-07T02:40:13.444Z,85.94
2022-10-07T02:43:32.191Z,85.76
2022-10-07T02:46:48.910Z,86.42
2022-10-07T02:50:05.512Z,85.33
2022-10-07T02:53:16.205Z,86.15
2022-10-07T02:56:28.391Z,85.78
2022-10-07T02:59:38.798Z,85.33
2022-10-07T03:02:52.952Z,85.76
2022-10-07T03:06:06.024Z,86.43
2022-10-07T03:09:17.293Z,86.01
2022-10-07T03:12:25.585Z,85.59
2022-10-07T03:15:41.822Z,85.46
2022-10-07T03:18:53.148Z,85.63
2022-10-07T03:22:10.281Z,85.44
2022-10-07T03:25:21.251Z,85.50
2022-10-07T03:28:37.474Z,86.01
2022-10-07T03:31:46.998Z,85.82
2022-10-07T03:34:56.474Z,85.59
2022-10-07T03:38:08.300Z,86.03
2022-10-07T03:41:17.808Z,85.62
2022-10-07T03:44:26.641Z,86.00
2022-10-07T03:47:36.977Z,85.61
2022-10-07T03:50:50.489Z,86.18
2022-10-07T03:54:01.136Z,85.87
2022-10-07T03:57:27.200Z,86.47
2022-10-07T04:00:38.918Z,86.64
2022-10-07T04:03:47.941Z,86.74
2022-10-07T04:06:56.280Z,86.99
2022-10-07T04:10:07.484Z,86.31
2022-10-07T04:13:16.143Z,85.76
2022-10-07T04:16:24.455Z,86.64
2022-10-07T04:19:33.358Z,86.16
2022-10-07T04:22:43.613Z,86.44
2022-10-07T04:25:54.929Z,86.05
2022-10-07T04:29:03.947Z,86.12
2022-10-07T04:32:12.760Z,86.24
2022-10-07T04:35:24.532Z,86.47
2022-10-07T04:38:35.275Z,85.61
2022-10-07T04:41:49.831Z,85.58
2022-10-07T04:45:07.199Z,84.78
2022-10-07T04:48:19.340Z,85.53
2022-10-07T04:51:27.930Z,85.01
2022-10-07T04:54:40.339Z,84.90
2022-10-07T04:57:50.963Z,85.12
2022-10-07T05:01:01.951Z,85.31
2022-10-07T05:04:11.721Z,86.74
2022-10-07T05:07:20.336Z,85.73
2022-10-07T05:10:30.689Z,86.48
2022-10-07T05:13:41.077Z,87.12
2022-10-07T05:16:49.677Z,86.83
2022-10-07T05:19:57.992Z,86.63
2022-10-07T05:23:06.717Z,86.79
2022-10-07T05:26:15.277Z,86.68
2022-10-07T05:29:29.598Z,87.76
2022-10-07T05:32:38.017Z,87.20
2022-10-07T05:35:48.694Z,86.87
2022-10-07T05:38:58.552Z,85.98
2022-10-07T05:42:14.428Z,85.88
2022-10-07T05:45:32.018Z,85.85
2022-10-07T05:48:41.370Z,85.50
2022-10-07T05:51:51.298Z,86.57
2022-10-07T05:54:59.876Z,86.40
2022-10-07T05:58:08.600Z,87.25
2022-10-07T06:01:21.062Z,86.58
2022-10-07T06:04:29.648Z,87.22
2022-10-07T06:07:38.124Z,86.93
2022-10-07T06:11:04.982Z,86.59
2022-10-07T06:14:13.835Z,86.25
2022-10-07T06:17:23.525Z,86.80
2022-10-07T06:20:34.513Z,86.78
2022-10-07T06:23:42.942Z,86.81
2022-10-07T06:26:51.421Z,86.13
2022-10-07T06:29:59.820Z,84.93
2022-10-07T06:33:10.044Z,84.46
2022-10-07T06:36:19.058Z,84.93
2022-10-07T06:39:28.760Z,84.86
2022-10-07T06:46:25.657Z,84.53
2022-10-07T06:49:35.883Z,85.63
2022-10-07T06:52:44.237Z,84.56
2022-10-07T06:55:54.706Z,84.63
2022-10-07T06:59:03.578Z,84.72
2022-10-07T07:02:20.216Z,84.25
2022-10-07T07:05:39.082Z,84.45
2022-10-07T07:08:50.376Z,84.13
2022-10-07T07:11:59.192Z,83.78
2022-10-07T07:15:13.245Z,82.74
2022-10-07T07:18:22.285Z,83.69
2022-10-07T07:21:33.581Z,83.32
2022-10-07T07:24:42.557Z,83.04
2022-10-07T07:27:56.808Z,82.97
2022-10-07T07:31:10.519Z,82.27
2022-10-07T07:34:19.536Z,83.57
2022-10-07T07:37:30.465Z,83.46
2022-10-07T07:40:40.509Z,83.25
2022-10-07T07:43:51.796Z,82.74
2022-10-07T07:47:00.664Z,81.94
2022-10-07T07:50:10.746Z,80.65
2022-10-07T07:53:22.925Z,80.69
2022-10-07T07:56:32.753Z,80.85
2022-10-07T07:59:41.676Z,80.78
2022-10-07T08:02:51.007Z,81.34
2022-10-07T08:06:08.642Z,80.84
2022-10-07T08:09:19.467Z,80.72
2022-10-07T08:12:29.377Z,81.82
2022-10-07T08:15:37.817Z,82.49
2022-10-07T08:18:49.340Z,83.58
2022-10-07T08:22:01.143Z,83.20
2022-10-07T08:25:13.218Z,81.82
2022-10-07T08:28:21.951Z,81.76
2022-10-07T08:31:31.735Z,81.96
2022-10-07T08:34:40.471Z,80.56
2022-10-07T08:37:49.062Z,79.17
2022-10-07T08:41:15.046Z,78.97
2022-10-07T08:44:32.094Z,78.40
2022-10-07T08:47:45.071Z,78.06
2022-10-07T08:51:00.890Z,78.08
2022-10-07T08:54:17.388Z,78.39
2022-10-07T08:57:47.744Z,79.16
2022-10-07T09:01:08.441Z,78.75
2022-10-07T09:04:39.637Z,77.79
2022-10-07T09:07:53.198Z,76.42
2022-10-07T09:11:16.565Z,75.49
2022-10-07T09:14:37.300Z,74.93
2022-10-07T09:17:55.792Z,74.17
2022-10-07T09:21:12.935Z,72.63
2022-10-07T09:24:25.719Z,71.49
2022-10-07T09:27:34.381Z,70.38
2022-10-07T09:30:45.234Z,69.73
2022-10-07T09:33:54.339Z,69.96
2022-10-07T09:37:21.179Z,69.58
2022-10-07T09:41:02.325Z,68.18
2022-10-07T09:44:27.537Z,67.72
2022-10-07T09:47:40.529Z,67.67
2022-10-07T09:50:49.824Z,67.36
2022-10-07T09:54:03.781Z,66.69
2022-10-07T09:57:32.084Z,67.95
2022-10-07T10:00:46.277Z,67.86
2022-10-07T10:04:00.304Z,68.53
2022-10-07T10:07:20.754Z,68.29
2022-10-07T10:10:32.454Z,67.87
2022-10-07T10:13:42.509Z,68.05
2022-10-07T10:16:50.985Z,67.65
2022-10-07T10:20:36.033Z,67.36
2022-10-07T10:23:48.270Z,66.90
2022-10-07T10:27:10.596Z,65.86
2022-10-07T10:30:23.562Z,65.88
2022-10-07T10:33:42.509Z,66.14
2022-10-07T10:37:03.481Z,65.92
2022-10-07T10:40:27.194Z,65.83
2022-10-07T10:43:58.534Z,65.75
2022-10-07T10:47:25.628Z,65.35
2022-10-07T10:50:52.427Z,66.00
2022-10-07T10:54:20.775Z,67.85
2022-10-07T10:57:44.223Z,72.52
2022-10-07T11:01:04.026Z,71.11
2022-10-07T11:04:36.385Z,70.61
2022-10-07T11:07:54.243Z,72.66
2022-10-07T11:11:08.848Z,74.25
2022-10-07T11:14:22.835Z,75.43
2022-10-07T11:17:37.563Z,75.80
2022-10-07T11:20:48.455Z,74.68
2022-10-07T11:24:05.053Z,73.37
2022-10-07T11:27:21.374Z,73.83
2022-10-07T11:30:42.031Z,72.45
2022-10-07T11:34:01.751Z,70.01
2022-10-07T11:37:20.257Z,67.53
2022-10-07T11:40:34.649Z,66.91
2022-10-07T11:43:47.439Z,64.99
2022-10-07T11:46:59.128Z,63.33
2022-10-07T11:50:17.683Z,63.11
2022-10-07T11:53:29.793Z,62.39
2022-10-07T11:56:48.089Z,63.30
2022-10-07T12:00:02.768Z,63.55
2022-10-07T12:03:48.550Z,62.79
2022-10-07T12:07:47.291Z,62.00
2022-10-07T12:10:57.084Z,61.51
2022-10-07T12:14:36.416Z,61.30
2022-10-07T12:17:56.270Z,62.14
2022-10-07T12:21:09.343Z,62.67
2022-10-07T12:24:17.634Z,62.39
2022-10-07T12:27:30.496Z,61.09
2022-10-07T12:30:50.555Z,63.83
2022-10-07T12:34:11.305Z,61.55
2022-10-07T12:37:50.116Z,62.18
2022-10-07T12:41:17.761Z,63.47
2022-10-07T12:44:33.727Z,64.55
2022-10-07T12:47:44.637Z,65.67
2022-10-07T12:50:58.128Z,66.50
2022-10-07T12:54:15.957Z,65.52
2022-10-07T12:57:34.089Z,65.38
2022-10-07T13:01:07.523Z,66.75
2022-10-07T13:04:45.767Z,66.21
2022-10-07T13:08:38.503Z,66.27
2022-10-07T13:12:16.228Z,67.12
2022-10-07T13:15:34.841Z,67.69
2022-10-07T13:18:50.439Z,66.84
2022-10-07T13:22:11.181Z,66.86
2022-10-07T13:25:22.479Z,66.17
2022-10-07T13:28:45.737Z,65.60
2022-10-07T13:32:16.316Z,66.22
2022-10-07T13:35:34.077Z,65.16
2022-10-07T13:38:47.999Z,66.32
2022-10-07T13:42:02.117Z,64.30
2022-10-07T13:45:15.834Z,64.72
2022-10-07T13:48:28.416Z,64.73
2022-10-07T13:51:41.933Z,63.33
2022-10-07T13:54:54.285Z,65.97
2022-10-07T13:58:07.040Z,65.23
2022-10-07T14:01:16.484Z,66.20
2022-10-07T14:04:27.442Z,66.87
2022-10-07T14:07:42.903Z,65.21
2022-10-07T14:10:59.402Z,66.24
2022-10-07T14:14:23.953Z,67.91
2022-10-07T14:17:41.898Z,68.30
2022-10-07T14:20:55.357Z,69.44
2022-10-07T14:24:11.536Z,70.53
2022-10-07T14:28:17.397Z,71.65
2022-10-07T14:31:45.781Z,71.96
2022-10-07T14:35:11.614Z,71.67
2022-10-07T14:38:26.345Z,72.20
2022-10-07T14:41:35.709Z,72.04
2022-10-07T14:44:45.049Z,71.50
2022-10-07T14:47:54.634Z,71.31
2022-10-07T14:51:02.991Z,71.22
2022-10-07T14:54:13.756Z,71.30
2022-10-07T14:57:22.527Z,71.53
2022-10-07T15:00:32.890Z,71.29
2022-10-07T15:03:48.709Z,71.27
2022-10-07T15:06:58.014Z,72.32
2022-10-07T15:10:13.150Z,73.16
2022-10-07T15:13:21.383Z,72.70
2022-10-07T15:16:30.123Z,72.22
2022-10-07T15:19:39.687Z,73.20
2022-10-07T15:22:48.152Z,73.26
2022-10-07T15:25:56.790Z,73.14
2022-10-07T15:29:08.432Z,73.47
2022-10-07T15:32:16.871Z,73.62
2022-10-07T15:35:27.799Z,73.58
2022-10-07T15:38:36.136Z,74.46
2022-10-07T15:41:45.608Z,75.29
2022-10-07T15:44:54.733Z,74.78
2022-10-07T15:48:03.124Z,74.63
2022-10-07T15:51:12.765Z,75.60
2022-10-07T15:54:21.106Z,75.38
2022-10-07T15:57:29.334Z,75.43
2022-10-07T16:00:37.520Z,76.06
2022-10-07T16:03:58.999Z,76.59
2022-10-07T16:07:10.625Z,76.66
2022-10-07T16:10:18.934Z,77.47
2022-10-07T16:13:27.110Z,77.76
2022-10-07T16:16:35.353Z,78.69
2022-10-07T16:19:44.403Z,79.13
2022-10-07T16:22:53.940Z,79.09
2022-10-07T16:26:06.372Z,79.80
2022-10-07T16:29:34.403Z,80.26
2022-10-07T16:32:42.935Z,80.21
2022-10-07T16:35:51.205Z,81.04
2022-10-07T16:39:02.507Z,81.48
2022-10-07T16:42:10.930Z,81.92
2022-10-07T16:45:19.282Z,81.92
2022-10-07T16:48:28.733Z,82.79
2022-10-07T16:51:39.080Z,83.33
2022-10-07T16:54:53.061Z,83.17
2022-10-07T16:58:01.393Z,83.36
2022-10-07T17:01:13.685Z,83.66
2022-10-07T17:04:22.668Z,84.21
2022-10-07T17:07:31.566Z,84.91
2022-10-07T17:10:43.867Z,84.46
2022-10-07T17:13:52.285Z,84.99
2022-10-07T17:17:01.669Z,85.01
2022-10-07T17:20:11.247Z,84.60
2022-10-07T17:23:21.021Z,85.15
2022-10-07T17:26:30.845Z,85.46
2022-10-07T17:29:42.588Z,85.78
2022-10-07T17:32:51.547Z,85.60
2022-10-07T17:36:04.571Z,85.29
2022-10-07T17:39:14.030Z,85.76
2022-10-07T17:42:23.972Z,85.62
2022-10-07T17:45:35.998Z,85.94
2022-10-07T17:48:45.814Z,85.99
2022-10-07T17:51:55.221Z,86.00
2022-10-07T17:55:04.246Z,86.45
2022-10-07T17:58:13.793Z,86.84
2022-10-07T18:01:26.416Z,87.09
2022-10-07T18:04:34.596Z,86.57
2022-10-07T18:07:44.642Z,86.27
2022-10-07T18:10:53.757Z,86.77
2022-10-07T18:14:20.986Z,86.53
2022-10-07T18:17:29.468Z,87.20
2022-10-07T18:20:41.590Z,86.70
2022-10-07T18:23:50.331Z,86.59
2022-10-07T18:27:01.069Z,86.75
2022-10-07T18:30:12.272Z,87.07
2022-10-07T18:33:20.711Z,87.42
2022-10-07T18:36:29.260Z,86.33
2022-10-07T18:39:37.500Z,86.94
2022-10-07T18:42:45.651Z,87.09
2022-10-07T18:46:02.161Z,87.79
2022-10-07T18:49:13.598Z,87.52
2022-10-07T18:52:22.156Z,87.58
2022-10-07T18:55:30.871Z,87.27
2022-10-07T18:58:42.712Z,88.00
2022-10-07T19:01:53.269Z,87.10
2022-10-07T19:05:01.798Z,87.24
2022-10-07T19:08:10.932Z,87.24
2022-10-07T19:11:20.898Z,87.95
2022-10-07T19:14:32.110Z,87.54
2022-10-07T19:17:42.070Z,87.12
2022-10-07T19:20:58.773Z,87.38
2022-10-07T19:24:08.142Z,86.95
2022-10-07T19:27:16.348Z,87.28
2022-10-07T19:30:28.164Z,87.98
2022-10-07T19:33:38.161Z,86.92
2022-10-07T19:36:48.041Z,87.25
2022-10-07T19:39:56.335Z,87.47
2022-10-07T19:43:05.601Z,87.86
2022-10-07T19:46:15.163Z,87.33
2022-10-07T19:49:25.033Z,87.33
2022-10-07T19:52:33.499Z,87.19
2022-10-07T19:55:46.217Z,87.37
2022-10-07T19:58:57.784Z,87.64
2022-10-07T20:02:08.342Z,86.20
2022-10-07T20:05:18.641Z,87.42
2022-10-07T20:08:33.853Z,87.12
2022-10-07T20:11:43.165Z,87.42
2022-10-07T20:14:51.340Z,86.65
2022-10-07T20:18:05.193Z,86.40
2022-10-07T20:21:18.245Z,86.68
2022-10-07T20:24:26.876Z,86.80
2022-10-07T20:27:35.574Z,87.31
2022-10-07T20:30:43.733Z,87.18
2022-10-07T20:33:54.392Z,87.49
2022-10-07T20:37:04.807Z,87.33
2022-10-07T20:40:30.744Z,87.03
2022-10-07T20:43:39.114Z,87.25
2022-10-07T20:46:51.706Z,87.37
2022-10-07T20:50:02.717Z,87.11
2022-10-07T20:53:12.457Z,87.61
2022-10-07T20:56:21.108Z,87.21
2022-10-07T20:59:31.365Z,86.99
2022-10-07T21:02:39.599Z,86.77
2022-10-07T21:05:47.793Z,87.16
2022-10-07T21:08:58.097Z,88.08
2022-10-07T21:12:10.830Z,87.29
2022-10-07T21:15:20.159Z,87.12
2022-10-07T21:18:31.068Z,86.94
2022-10-07T21:21:39.598Z,87.43
2022-10-07T21:24:49.388Z,87.61
2022-10-07T21:27:57.863Z,86.86
2022-10-07T21:31:09.733Z,87.65
2022-10-07T21:34:18.123Z,87.92
2022-10-07T21:37:26.582Z,87.31
2022-10-07T21:40:36.238Z,87.92
2022-10-07T21:43:49.664Z,87.86
2022-10-07T21:47:00.100Z,87.79
2022-10-07T21:50:11.232Z,88.79
2022-10-07T21:53:19.649Z,88.11
2022-10-07T21:56:32.095Z,88.48
2022-10-07T21:59:40.557Z,88.45
2022-10-07T22:02:50.518Z,88.10
2022-10-07T22:06:03.510Z,88.05
2022-10-07T22:09:11.394Z,88.52
2022-10-07T22:12:20.969Z,88.01
2022-10-07T22:15:29.167Z,88.64
2022-10-07T22:18:38.052Z,88.70
2022-10-07T22:21:47.170Z,87.99
2022-10-07T22:24:55.703Z,88.48
2022-10-07T22:28:06.184Z,88.47
2022-10-07T22:31:16.818Z,88.10
2022-10-07T22:34:43.284Z,88.59
2022-10-07T22:37:52.294Z,87.72
2022-10-07T22:41:04.165Z,88.29
2022-10-07T22:44:14.247Z,88.33
2022-10-07T22:47:24.824Z,88.22
2022-10-07T22:50:33.744Z,88.43
2022-10-07T22:53:46.487Z,88.44
2022-10-07T22:56:54.864Z,88.95
2022-10-07T23:00:05.507Z,88.50
2022-10-07T23:03:13.682Z,88.24
2022-10-07T23:06:22.429Z,88.79
2022-10-07T23:09:30.815Z,89.10
2022-10-07T23:12:38.950Z,88.21
2022-10-07T23:15:56.917Z,89.14
2022-10-07T23:19:05.101Z,88.74
2022-10-07T23:22:13.365Z,89.00
2022-10-07T23:25:21.503Z,88.85
2022-10-07T23:28:29.973Z,88.64
2022-10-07T23:31:40.331Z,88.61
2022-10-07T23:34:48.601Z,89.46
2022-10-07T23:37:57.350Z,88.91
2022-10-07T23:41:07.045Z,89.05
2022-10-07T23:44:15.314Z,88.80
2022-10-07T23:47:24.823Z,88.58
2022-10-07T23:50:34.808Z,89.15
2022-10-07T23:53:43.092Z,88.46
2022-10-07T23:56:51.280Z,88.86
2022-10-07T23:59:59.446Z,88.58
